Time;durP1;ratioP1;P1;durP2;ratioP2;P2;SDS_P1;SDS_P2;PMS_P1;PMS_P2;Temp;Humidity;BMP_temperature;BMP_pressure;BME280_temperature;BME280_humidity;BME280_pressure;Samples;Min_cycle;Max_cycle;Signal;HPM_P1;HPM_P2
2021/04/15 13:46:54;;;;;;;13.17;10.27;;;;;;;22.62;46.89;99872.80;112381;1204;64371;-59
2021/04/15 13:51:05;;;;;;;15.78;10.03;;;;;;;22.77;46.55;99878.31;113335;1201;43101;-59
2021/04/15 13:53:44;;;;;;;13.90;10.10;;;;;;;22.86;46.07;99870.58;113874;1216;23150;-59
2021/04/15 13:56:10;;;;;;;15.23;10.45;;;;;;;22.92;46.12;99864.19;113570;1212;23240;-59
2021/04/15 13:58:36;;;;;;;18.25;10.63;;;;;;;22.98;46.21;99868.52;113499;1212;24604;-59
2021/04/15 14:01:13;;;;;;;16.20;10.10;;;;;;;23.03;46.18;99866.67;113327;1216;26183;-59
2021/04/15 14:03:39;;;;;;;14.17;10.83;;;;;;;23.09;45.94;99864.83;113417;1212;23225;-64
2021/04/15 14:06:14;;;;;;;29.20;15.23;;;;;;;23.09;46.10;99859.47;113333;1212;23147;-63
2021/04/15 14:08:43;;;;;;;30.13;16.07;;;;;;;23.17;46.79;99869.70;113286;1216;23143;-63
2021/04/15 14:11:42;;;;;;;35.37;17.07;;;;;;;23.20;47.05;99866.47;113285;1216;22982;-63
2021/04/15 14:14:17;;;;;;;34.70;16.93;;;;;;;23.25;47.11;99869.19;113272;1216;26162;-63
2021/04/15 14:16:43;;;;;;;52.35;21.38;;;;;;;23.27;47.29;99860.88;113186;1212;23147;-63
2021/04/15 14:19:35;;;;;;;56.98;23.13;;;;;;;23.30;47.47;99860.34;113305;1216;23144;-64
2021/04/15 14:22:01;;;;;;;64.78;23.63;;;;;;;23.32;47.49;99863.59;113241;1216;23194;-63
2021/04/15 14:24:28;;;;;;;57.50;23.63;;;;;;;23.34;47.54;99866.80;113379;1212;23180;-64
2021/04/15 14:26:58;;;;;;;52.88;22.95;;;;;;;23.36;47.59;99859.30;113634;1212;23151;-63
2021/04/15 14:29:24;;;;;;;55.43;24.23;;;;;;;23.37;47.35;99860.92;113459;1212;23150;-66
2021/04/15 14:31:52;;;;;;;60.70;23.83;;;;;;;23.39;47.72;99870.32;113450;1212;23275;-61
2021/04/15 14:34:39;;;;;;;60.95;24.50;;;;;;;23.40;47.44;99866.56;113607;1216;23224;-62
2021/04/15 14:37:10;;;;;;;48.15;22.55;;;;;;;23.41;47.70;99862.01;113328;1216;24757;-61
2021/04/15 14:39:40;;;;;;;48.47;22.70;;;;;;;23.42;47.43;99866.31;113511;1216;23199;-61
2021/04/15 14:42:11;;;;;;;51.93;23.27;;;;;;;23.43;47.95;99859.88;113365;1214;27254;-61
2021/04/15 14:44:37;;;;;;;59.97;23.77;;;;;;;23.43;48.14;99858.00;113310;1216;23198;-61
2021/04/15 14:47:04;;;;;;;51.43;23.25;;;;;;;23.45;47.96;99860.44;112926;1167;267561;-61
2021/04/15 14:49:34;;;;;;;51.95;24.15;;;;;;;23.47;48.00;99861.00;112198;1170;412087;-62
2021/04/15 14:52:07;;;;;;;53.30;23.95;;;;;;;23.47;48.42;99855.63;113262;1216;23157;-60
2021/04/15 14:54:35;;;;;;;47.10;22.55;;;;;;;23.48;48.46;99858.05;113301;1216;23157;-60
2021/04/15 14:57:01;;;;;;;57.80;23.60;;;;;;;23.48;48.53;99851.88;113573;1214;24777;-61
2021/04/15 14:59:29;;;;;;;49.40;23.40;;;;;;;23.50;48.05;99855.89;113446;1216;24917;-62
2021/04/15 15:02:08;;;;;;;48.40;21.93;;;;;;;23.50;48.43;99853.21;113343;1219;25999;-62
2021/04/15 15:04:35;;;;;;;49.30;23.55;;;;;;;23.52;48.19;99856.45;113529;1216;23182;-62
2021/04/15 15:07:02;;;;;;;47.67;22.27;;;;;;;23.52;48.72;99853.77;113499;1217;24814;-62
2021/04/15 15:09:30;;;;;;;45.33;23.10;;;;;;;23.54;48.72;99846.23;113423;1213;24843;-63
2021/04/15 15:11:57;;;;;;;44.70;22.93;;;;;;;23.54;48.64;99846.23;113294;1217;24596;-62
2021/04/15 15:14:28;;;;;;;51.63;23.10;;;;;;;23.54;48.46;99843.55;113268;1217;23150;-61
2021/04/15 15:16:54;;;;;;;43.00;21.68;;;;;;;23.56;48.34;99844.10;113304;1218;23159;-63
2021/04/15 15:19:26;;;;;;;41.33;20.93;;;;;;;23.55;48.29;99841.67;113228;1217;23211;-63
2021/04/15 15:21:54;;;;;;;43.73;20.93;;;;;;;23.56;48.50;99837.92;113319;1219;23255;-62
2021/04/15 15:24:20;;;;;;;41.30;20.93;;;;;;;23.55;48.15;99834.42;113300;1218;23146;-62
2021/04/15 15:26:52;;;;;;;45.37;22.60;;;;;;;23.55;48.40;99834.42;113256;1218;23147;-62
2021/04/15 15:29:47;;;;;;;41.20;21.15;;;;;;;23.56;48.45;99836.05;113277;1212;26649;-61
2021/04/15 15:32:22;;;;;;;35.35;20.50;;;;;;;23.56;48.15;99835.23;113018;1216;26376;-62
2021/04/15 15:34:59;;;;;;;41.83;21.68;;;;;;;23.55;48.09;99838.98;113364;1215;23186;-61
2021/04/15 15:37:51;;;;;;;43.63;21.10;;;;;;;23.55;48.07;99829.05;113443;1218;23129;-66
2021/04/15 15:40:32;;;;;;;41.70;20.28;;;;;;;23.55;48.10;99822.86;113418;1218;23195;-62
2021/04/15 15:42:58;;;;;;;36.73;20.03;;;;;;;23.55;47.60;99820.18;113370;1218;24907;-60
2021/04/15 15:45:27;;;;;;;40.40;20.47;;;;;;;23.54;47.75;99815.88;113381;1216;26098;-62
2021/04/15 15:47:54;;;;;;;34.58;20.55;;;;;;;23.53;47.58;99820.44;113408;1216;23170;-63
2021/04/15 15:50:40;;;;;;;33.70;19.07;;;;;;;23.54;47.86;99821.24;113336;1218;26027;-62
2021/04/15 15:53:26;;;;;;;35.95;20.85;;;;;;;23.52;47.87;99813.47;113286;1216;23151;-60
2021/04/15 15:55:53;;;;;;;37.90;19.45;;;;;;;23.53;47.86;99811.59;113273;1218;23204;-62
2021/04/15 15:58:27;;;;;;;39.37;20.43;;;;;;;23.53;47.85;99819.66;113419;1216;23215;-61
2021/04/15 16:01:10;;;;;;;43.80;21.05;;;;;;;23.53;47.76;99814.28;113429;1218;24968;-63
2021/04/15 16:03:36;;;;;;;35.10;19.58;;;;;;;23.53;48.08;99811.59;113354;1218;26200;-61
2021/04/15 16:06:32;;;;;;;39.93;20.15;;;;;;;23.53;47.71;99814.28;113261;1216;23153;-60
2021/04/15 16:09:15;;;;;;;33.68;18.53;;;;;;;23.53;47.75;99814.28;113442;1217;23156;-61
2021/04/15 16:11:43;;;;;;;37.60;19.43;;;;;;;23.52;47.84;99816.16;113592;1218;24623;-62
2021/04/15 16:14:09;;;;;;;33.73;18.40;;;;;;;23.51;47.77;99806.48;113620;1218;23605;-60
2021/04/15 16:16:35;;;;;;;40.50;19.48;;;;;;;23.53;47.78;99806.22;113465;1218;24941;-61
2021/04/15 16:19:01;;;;;;;34.63;18.28;;;;;;;23.53;47.71;99809.69;113393;1217;23314;-59
2021/04/15 16:21:28;;;;;;;33.63;18.73;;;;;;;23.54;47.61;99807.81;113327;1217;23173;-63
2021/04/15 16:24:28;;;;;;;32.45;18.90;;;;;;;23.55;47.65;99820.18;113415;1218;24910;-63
2021/04/15 16:26:56;;;;;;;38.47;19.10;;;;;;;23.55;47.89;99812.93;113421;1218;23201;-61
2021/04/15 16:29:22;;;;;;;30.47;19.60;;;;;;;23.54;47.79;99810.50;113293;1218;23161;-63
2021/04/15 16:31:49;;;;;;;32.90;18.73;;;;;;;23.54;47.90;99819.38;113310;1213;24574;-62
2021/04/15 16:34:39;;;;;;;29.93;17.70;;;;;;;23.54;48.27;99818.56;113365;1218;23153;-62
2021/04/15 16:37:09;;;;;;;36.03;18.17;;;;;;;23.54;48.02;99813.19;113423;1216;23326;-61
2021/04/15 16:39:38;;;;;;;34.00;18.03;;;;;;;23.54;47.82;99816.69;113372;1217;25042;-63
2021/04/15 16:42:05;;;;;;;30.18;17.50;;;;;;;23.53;47.90;99817.75;113403;1213;24619;-61
2021/04/15 16:44:31;;;;;;;40.53;18.27;;;;;;;23.53;47.78;99823.13;113739;1217;24629;-64
2021/04/15 16:46:57;;;;;;;30.60;18.43;;;;;;;23.53;47.72;99825.81;113351;1212;25994;-62
2021/04/15 16:49:24;;;;;;;29.13;17.78;;;;;;;23.54;47.75;99815.88;113543;1217;24587;-63
2021/04/15 16:51:50;;;;;;;27.80;16.53;;;;;;;23.54;47.61;99816.69;113512;1218;23168;-62
2021/04/15 16:54:16;;;;;;;30.60;19.00;;;;;;;23.53;47.66;99823.13;113522;1213;23164;-63
2021/04/15 16:56:42;;;;;;;27.43;17.23;;;;;;;23.53;47.67;99828.49;113482;1213;23163;-63
2021/04/15 16:59:08;;;;;;;26.00;16.98;;;;;;;23.53;47.62;99825.03;113353;1217;23153;-63
2021/04/15 17:01:34;;;;;;;33.45;16.85;;;;;;;23.53;47.41;99825.81;113407;1218;23311;-63
2021/04/15 17:04:00;;;;;;;27.50;16.67;;;;;;;23.52;47.84;99834.97;113597;1212;23164;-61
2021/04/15 17:06:26;;;;;;;31.83;16.83;;;;;;;23.53;47.83;99833.09;113415;1216;23335;-61
2021/04/15 17:08:52;;;;;;;33.03;17.73;;;;;;;23.52;47.88;99834.97;113442;1218;23154;-62
2021/04/15 17:11:18;;;;;;;30.00;18.70;;;;;;;23.53;48.29;99835.77;113325;1216;23208;-63
2021/04/15 17:13:44;;;;;;;26.48;17.00;;;;;;;23.53;48.16;99838.45;113249;1216;24596;-62
2021/04/15 17:16:11;;;;;;;26.93;17.13;;;;;;;23.54;48.24;99846.23;113422;1212;26044;-68
2021/04/15 17:18:37;;;;;;;29.23;17.63;;;;;;;23.54;48.37;99851.61;113808;1218;23162;-63
2021/04/15 17:21:04;;;;;;;31.47;17.27;;;;;;;23.56;48.51;99859.41;113562;1218;23154;-62
2021/04/15 17:23:30;;;;;;;31.08;18.40;;;;;;;23.56;48.78;99857.53;113468;1213;24936;-62
2021/04/15 17:25:56;;;;;;;31.00;15.93;;;;;;;23.56;49.05;99859.41;113519;1216;26194;-66
2021/04/15 17:28:23;;;;;;;33.80;17.15;;;;;;;23.57;49.42;99855.66;113579;1213;24590;-65
